createdAt,value
2016-10-31T08:28:45.529Z,1013.96
2016-10-31T08:29:26.236Z,1013.95
2016-10-31T08:30:06.891Z,1013.98
2016-10-31T08:30:47.609Z,1013.97
2016-10-31T08:31:28.284Z,1013.97
2016-10-31T08:32:08.993Z,1013.99
2016-10-31T08:32:49.691Z,1014
2016-10-31T08:33:30.436Z,1013.99
2016-10-31T08:34:11.134Z,1013.98
2016-10-31T08:34:51.843Z,1014.02
2016-10-31T08:35:32.535Z,1014.03
2016-10-31T08:36:13.215Z,1014.05
2016-10-31T08:36:53.928Z,1014.01
2016-10-31T08:37:34.630Z,1013.99
2016-10-31T08:38:15.308Z,1014.01
2016-10-31T08:38:55.953Z,1013.99
2016-10-31T08:39:36.675Z,1013.99
2016-10-31T08:40:17.390Z,1014.02
2016-10-31T08:40:58.742Z,1013.98
2016-10-31T08:41:38.785Z,1014.05
2016-10-31T08:42:19.484Z,1013.99
2016-10-31T08:43:00.218Z,1013.97
2016-10-31T08:43:40.899Z,1014
2016-10-31T08:44:21.603Z,1013.99
2016-10-31T08:45:02.311Z,1013.99
2016-10-31T08:45:42.959Z,1014.02
2016-10-31T08:46:23.688Z,1013.97
2016-10-31T08:47:04.353Z,1014
2016-10-31T08:47:45.048Z,1013.98
2016-10-31T08:48:26.678Z,1014
2016-10-31T08:49:07.349Z,1014
2016-10-31T08:49:48.065Z,1013.99
2016-10-31T08:50:28.800Z,1014
2016-10-31T08:51:09.456Z,1014.01
2016-10-31T08:51:50.151Z,1014.03
2016-10-31T08:52:30.812Z,1014.05
2016-10-31T08:53:11.474Z,1014.02
2016-10-31T08:53:52.157Z,1014.07
2016-10-31T08:54:32.862Z,1014.04
2016-10-31T08:55:13.568Z,1014.05
2016-10-31T08:55:54.241Z,1014.07
2016-10-31T08:56:34.911Z,1014.04
2016-10-31T08:57:15.613Z,1014.06
2016-10-31T08:57:56.327Z,1014.04
2016-10-31T08:58:36.999Z,1014.07
2016-10-31T08:59:17.730Z,1014.03
2016-10-31T08:59:58.402Z,1014.09
2016-10-31T09:00:39.103Z,1014.04
2016-10-31T09:01:19.823Z,1014.08
2016-10-31T09:02:00.484Z,1014.07
2016-10-31T09:02:41.182Z,1014.04
2016-10-31T09:03:21.913Z,1014.06
2016-10-31T09:04:02.604Z,1014.06
2016-10-31T09:04:43.315Z,1014.07
2016-10-31T09:05:24.005Z,1014.06
2016-10-31T09:06:04.692Z,1014.08
2016-10-31T09:06:45.444Z,1014.09
2016-10-31T09:07:26.154Z,1014.08
2016-10-31T09:08:06.801Z,1014.12
2016-10-31T09:08:47.569Z,1014.08
2016-10-31T09:09:28.219Z,1014.06
2016-10-31T09:10:08.928Z,1014.08
2016-10-31T09:10:49.627Z,1014.09
2016-10-31T09:11:30.334Z,1014.1
2016-10-31T09:12:11.057Z,1014.09
2016-10-31T09:12:51.793Z,1014.08
2016-10-31T09:13:32.425Z,1014.08
2016-10-31T09:14:13.130Z,1014.14
2016-10-31T09:14:53.890Z,1014.15
2016-10-31T09:15:34.641Z,1014.1
2016-10-31T09:16:15.363Z,1014.12
2016-10-31T09:16:56.034Z,1014.14
2016-10-31T09:17:36.735Z,1014.18
2016-10-31T09:18:17.390Z,1014.15
2016-10-31T09:18:58.095Z,1014.16
2016-10-31T09:19:38.771Z,1014.15
2016-10-31T09:20:19.473Z,1014.13
2016-10-31T09:21:00.196Z,1014.16
2016-10-31T09:21:40.935Z,1014.15
2016-10-31T09:22:21.633Z,1014.2
2016-10-31T09:23:02.343Z,1014.15
2016-10-31T09:23:43.042Z,1014.2
2016-10-31T09:24:23.789Z,1014.18
2016-10-31T09:25:04.427Z,1014.19
2016-10-31T09:25:45.113Z,1014.2
2016-10-31T09:26:25.840Z,1014.16
2016-10-31T09:27:06.588Z,1014.2
2016-10-31T09:27:47.308Z,1014.19
2016-10-31T09:28:28.045Z,1014.16
2016-10-31T09:29:08.770Z,1014.19
2016-10-31T09:29:49.453Z,1014.19
2016-10-31T09:30:30.191Z,1014.17
2016-10-31T09:31:10.901Z,1014.17
2016-10-31T09:31:51.585Z,1014.21
2016-10-31T09:32:32.275Z,1014.2
2016-10-31T09:33:12.953Z,1014.21
2016-10-31T09:33:53.702Z,1014.18
2016-10-31T09:34:35.288Z,1014.23
2016-10-31T09:35:15.057Z,1014.19
2016-10-31T09:35:55.785Z,1014.23
2016-10-31T09:36:36.445Z,1014.22
2016-10-31T09:37:17.112Z,1014.19
2016-10-31T09:37:57.834Z,1014.2
2016-10-31T09:38:38.564Z,1014.21
2016-10-31T09:39:19.285Z,1014.24
2016-10-31T09:39:59.977Z,1014.21
2016-10-31T09:40:40.645Z,1014.24
2016-10-31T09:41:21.379Z,1014.25
2016-10-31T09:42:02.091Z,1014.24
2016-10-31T09:42:42.750Z,1014.24
2016-10-31T09:43:23.465Z,1014.25
2016-10-31T09:44:04.151Z,1014.26
2016-10-31T09:44:44.818Z,1014.26
2016-10-31T09:45:25.501Z,1014.23
2016-10-31T09:46:06.226Z,1014.24
2016-10-31T09:46:46.897Z,1014.26
2016-10-31T09:47:28.284Z,1014.29
2016-10-31T09:48:08.247Z,1014.23
2016-10-31T09:48:49.014Z,1014.3
2016-10-31T09:49:29.683Z,1014.27
2016-10-31T09:50:10.404Z,1014.3
2016-10-31T09:50:51.065Z,1014.28
2016-10-31T09:51:31.773Z,1014.31
2016-10-31T09:52:12.465Z,1014.3
2016-10-31T09:52:53.177Z,1014.31
2016-10-31T09:53:33.828Z,1014.32
2016-10-31T09:54:14.531Z,1014.35
2016-10-31T09:54:55.235Z,1014.37
2016-10-31T09:55:35.946Z,1014.38
2016-10-31T09:56:16.654Z,1014.39
2016-10-31T09:56:57.371Z,1014.36
2016-10-31T09:57:38.061Z,1014.37
2016-10-31T09:58:18.753Z,1014.38
2016-10-31T09:58:59.488Z,1014.42
2016-10-31T09:59:40.185Z,1014.41
2016-10-31T10:00:20.921Z,1014.38
2016-10-31T10:01:01.585Z,1014.39
2016-10-31T10:01:42.298Z,1014.4
2016-10-31T10:02:23.037Z,1014.45
2016-10-31T10:03:03.712Z,1014.43
2016-10-31T10:03:44.417Z,1014.46
2016-10-31T10:04:25.075Z,1014.41
2016-10-31T10:05:05.766Z,1014.42
2016-10-31T10:05:46.462Z,1014.43
2016-10-31T10:06:27.137Z,1014.41
2016-10-31T10:07:07.793Z,1014.43
2016-10-31T10:07:48.517Z,1014.42
2016-10-31T10:08:29.203Z,1014.47
2016-10-31T10:09:09.881Z,1014.45
2016-10-31T10:09:50.594Z,1014.44
2016-10-31T10:10:31.311Z,1014.48
2016-10-31T10:11:11.962Z,1014.43
2016-10-31T10:11:52.687Z,1014.42
2016-10-31T10:12:33.362Z,1014.4
2016-10-31T10:13:14.090Z,1014.45
2016-10-31T10:13:54.778Z,1014.46
2016-10-31T10:14:35.530Z,1014.39
2016-10-31T10:15:16.206Z,1014.44
2016-10-31T10:15:56.913Z,1014.43
2016-10-31T10:16:37.632Z,1014.45
2016-10-31T10:17:18.318Z,1014.46
2016-10-31T10:17:58.977Z,1014.45
2016-10-31T10:18:39.693Z,1014.47
2016-10-31T10:19:20.397Z,1014.44
2016-10-31T10:20:01.049Z,1014.43
2016-10-31T10:20:41.799Z,1014.46
2016-10-31T10:21:22.495Z,1014.44
2016-10-31T10:22:03.250Z,1014.46
2016-10-31T10:22:43.944Z,1014.51
2016-10-31T10:23:24.699Z,1014.42
2016-10-31T10:24:05.368Z,1014.48
2016-10-31T10:24:46.082Z,1014.49
2016-10-31T10:25:26.810Z,1014.47
2016-10-31T10:26:07.507Z,1014.5
2016-10-31T10:26:48.187Z,1014.47
2016-10-31T10:27:28.901Z,1014.5
2016-10-31T10:28:09.592Z,1014.49
2016-10-31T10:28:50.280Z,1014.51
2016-10-31T10:29:30.962Z,1014.53
2016-10-31T10:30:11.678Z,1014.48
2016-10-31T10:30:52.409Z,1014.51
2016-10-31T10:31:33.041Z,1014.52
2016-10-31T10:32:13.824Z,1014.53
2016-10-31T10:32:54.574Z,1014.53
2016-10-31T10:33:35.262Z,1014.54
2016-10-31T10:34:15.948Z,1014.51
2016-10-31T10:34:56.665Z,1014.56
2016-10-31T10:35:37.390Z,1014.53
2016-10-31T10:36:18.111Z,1014.55
2016-10-31T10:36:58.815Z,1014.56
2016-10-31T10:37:39.538Z,1014.56
2016-10-31T10:38:20.213Z,1014.58
2016-10-31T10:39:01.829Z,1014.57
2016-10-31T10:39:41.637Z,1014.57
2016-10-31T10:40:22.336Z,1014.54
2016-10-31T10:41:03.060Z,1014.58
2016-10-31T10:41:43.743Z,1014.57
2016-10-31T10:42:24.417Z,1014.56
2016-10-31T10:43:05.140Z,1014.61
2016-10-31T10:43:45.803Z,1014.61
2016-10-31T10:44:26.511Z,1014.59
2016-10-31T10:45:07.129Z,1014.59
2016-10-31T10:45:47.859Z,1014.6
2016-10-31T10:46:28.560Z,1014.61
2016-10-31T10:47:09.289Z,1014.6
2016-10-31T10:47:49.903Z,1014.62
2016-10-31T10:48:30.635Z,1014.61
2016-10-31T10:49:11.308Z,1014.55
2016-10-31T10:49:51.990Z,1014.57
2016-10-31T10:50:32.671Z,1014.58
2016-10-31T10:51:13.347Z,1014.58
2016-10-31T10:51:54.083Z,1014.56
2016-10-31T10:52:34.795Z,1014.59
2016-10-31T10:53:15.513Z,1014.55
2016-10-31T10:53:56.132Z,1014.55
2016-10-31T10:54:36.822Z,1014.52
2016-10-31T10:55:17.509Z,1014.56
2016-10-31T10:55:58.200Z,1014.54
2016-10-31T10:56:38.871Z,1014.52
2016-10-31T10:57:19.557Z,1014.5
2016-10-31T10:58:00.269Z,1014.51
2016-10-31T10:58:40.999Z,1014.49
2016-10-31T10:59:21.746Z,1014.49
2016-10-31T11:00:02.486Z,1014.47
2016-10-31T11:00:43.217Z,1014.48
2016-10-31T11:01:23.908Z,1014.47
2016-10-31T11:02:04.630Z,1014.48
2016-10-31T11:02:45.325Z,1014.48
2016-10-31T11:03:25.983Z,1014.44
2016-10-31T11:04:06.670Z,1014.44
2016-10-31T11:04:47.392Z,1014.45
2016-10-31T11:05:28.081Z,1014.42
2016-10-31T11:06:08.809Z,1014.41
2016-10-31T11:06:49.565Z,1014.39
2016-10-31T11:07:31.074Z,1014.39
2016-10-31T11:08:11.832Z,1014.42
2016-10-31T11:08:52.584Z,1014.35
2016-10-31T11:09:33.355Z,1014.35
2016-10-31T11:10:14.087Z,1014.39
2016-10-31T11:10:54.825Z,1014.4
2016-10-31T11:11:35.522Z,1014.4
2016-10-31T11:12:16.161Z,1014.4
2016-10-31T11:12:56.825Z,1014.39
2016-10-31T11:13:37.537Z,1014.36
2016-10-31T11:14:18.251Z,1014.35
2016-10-31T11:14:58.956Z,1014.37
2016-10-31T11:15:39.595Z,1014.32
2016-10-31T11:16:20.299Z,1014.31
2016-10-31T11:17:01.000Z,1014.35
2016-10-31T11:17:41.703Z,1014.32
2016-10-31T11:18:22.433Z,1014.31
2016-10-31T11:19:03.868Z,1014.33
2016-10-31T11:19:44.639Z,1014.32
2016-10-31T11:20:25.285Z,1014.33
2016-10-31T11:21:06.000Z,1014.28
2016-10-31T11:21:46.707Z,1014.26
2016-10-31T11:22:27.354Z,1014.29
2016-10-31T11:23:08.091Z,1014.32
2016-10-31T11:23:48.830Z,1014.28
2016-10-31T11:24:29.487Z,1014.28
2016-10-31T11:25:10.207Z,1014.26
2016-10-31T11:25:50.938Z,1014.28
2016-10-31T11:26:31.657Z,1014.27
2016-10-31T11:27:12.357Z,1014.3
2016-10-31T11:27:53.018Z,1014.29
2016-10-31T11:28:33.721Z,1014.29
2016-10-31T11:29:14.411Z,1014.28
2016-10-31T11:29:55.158Z,1014.26
2016-10-31T11:30:35.866Z,1014.25
2016-10-31T11:57:29.342Z,1014.03
2016-10-31T11:58:09.968Z,1014.06
2016-10-31T11:58:50.611Z,1014.04
2016-10-31T11:59:31.315Z,1014.03
2016-10-31T12:00:12.051Z,1013.97
2016-10-31T12:00:52.736Z,1014.01
2016-10-31T12:01:33.373Z,1014
2016-10-31T12:02:14.154Z,1014.01
2016-10-31T12:02:54.895Z,1014
2016-10-31T12:03:35.569Z,1014
2016-10-31T12:04:16.248Z,1013.98
2016-10-31T12:04:56.896Z,1013.97
2016-10-31T12:05:37.609Z,1013.95
2016-10-31T12:06:18.304Z,1013.95
2016-10-31T12:06:59.106Z,1013.98
2016-10-31T12:07:40.441Z,1013.96
2016-10-31T12:08:21.136Z,1013.98
2016-10-31T12:09:01.805Z,1013.99
2016-10-31T12:09:42.480Z,1013.97
2016-10-31T12:10:23.256Z,1013.91
2016-10-31T12:11:04.008Z,1013.9
2016-10-31T12:11:44.651Z,1013.94
2016-10-31T12:12:25.352Z,1013.93
2016-10-31T12:13:06.091Z,1013.92
2016-10-31T12:13:46.826Z,1013.93
2016-10-31T12:14:27.542Z,1013.92
2016-10-31T12:15:08.226Z,1013.92
2016-10-31T12:15:48.878Z,1013.9
2016-10-31T12:16:29.596Z,1013.91
2016-10-31T12:17:10.280Z,1013.9
2016-10-31T12:17:50.968Z,1013.9
2016-10-31T12:18:31.668Z,1013.88
2016-10-31T12:19:12.355Z,1013.86
2016-10-31T12:19:53.067Z,1013.88
2016-10-31T12:20:33.749Z,1013.84
2016-10-31T12:21:14.408Z,1013.91
2016-10-31T12:21:55.107Z,1013.93
2016-10-31T12:22:35.785Z,1013.85
2016-10-31T12:23:16.447Z,1013.87
2016-10-31T12:23:57.210Z,1013.9
2016-10-31T12:24:37.912Z,1013.88
2016-10-31T12:25:19.421Z,1013.87
2016-10-31T12:26:00.127Z,1013.81
2016-10-31T12:26:40.848Z,1013.85
2016-10-31T12:27:21.541Z,1013.84
2016-10-31T12:28:02.253Z,1013.8
2016-10-31T12:28:42.955Z,1013.85
2016-10-31T12:29:23.680Z,1013.84
2016-10-31T12:30:04.383Z,1013.81
2016-10-31T12:30:45.057Z,1013.82
2016-10-31T12:31:25.704Z,1013.78
2016-10-31T12:32:06.414Z,1013.74
2016-10-31T12:32:47.125Z,1013.74
2016-10-31T12:33:27.826Z,1013.73
2016-10-31T12:34:08.599Z,1013.78
2016-10-31T12:34:49.287Z,1013.73
2016-10-31T12:35:29.940Z,1013.78
2016-10-31T12:36:10.635Z,1013.74
2016-10-31T12:36:51.325Z,1013.78
2016-10-31T12:37:32.024Z,1013.72
2016-10-31T12:38:12.790Z,1013.76
2016-10-31T12:38:53.487Z,1013.7
2016-10-31T12:39:34.157Z,1013.71
2016-10-31T12:40:14.868Z,1013.72
2016-10-31T12:40:55.560Z,1013.72
2016-10-31T12:41:36.263Z,1013.71
2016-10-31T12:42:17.003Z,1013.71
2016-10-31T12:42:57.659Z,1013.66
2016-10-31T12:43:38.349Z,1013.69
2016-10-31T12:44:19.013Z,1013.68
2016-10-31T12:44:59.701Z,1013.69
2016-10-31T12:45:40.402Z,1013.67
2016-10-31T12:46:21.134Z,1013.69
2016-10-31T12:47:01.798Z,1013.68
2016-10-31T12:47:42.492Z,1013.65
2016-10-31T12:48:23.210Z,1013.67
2016-10-31T12:49:03.932Z,1013.64
2016-10-31T12:49:44.679Z,1013.68
2016-10-31T12:50:25.529Z,1013.72
2016-10-31T12:51:06.181Z,1013.73
2016-10-31T12:51:46.894Z,1013.69
2016-10-31T12:52:27.545Z,1013.69
2016-10-31T12:53:08.215Z,1013.68
2016-10-31T12:53:48.905Z,1013.64
2016-10-31T12:54:29.562Z,1013.68
2016-10-31T12:55:10.234Z,1013.61
2016-10-31T12:55:50.939Z,1013.66
2016-10-31T12:56:31.681Z,1013.61
2016-10-31T12:57:12.305Z,1013.62
2016-10-31T12:57:52.991Z,1013.59
2016-10-31T12:58:33.693Z,1013.54
2016-10-31T12:59:14.437Z,1013.58
2016-10-31T12:59:55.123Z,1013.57
2016-10-31T13:00:35.877Z,1013.58
2016-10-31T13:01:16.564Z,1013.55
2016-10-31T13:01:57.216Z,1013.53
2016-10-31T13:02:37.882Z,1013.53
2016-10-31T13:03:18.638Z,1013.55
2016-10-31T13:03:59.374Z,1013.51
2016-10-31T13:04:40.039Z,1013.48
2016-10-31T13:05:20.730Z,1013.49
2016-10-31T13:06:01.450Z,1013.53
2016-10-31T13:06:42.156Z,1013.49
2016-10-31T13:07:23.107Z,1013.46
2016-10-31T13:08:03.825Z,1013.51
2016-10-31T13:08:44.527Z,1013.49
2016-10-31T13:09:25.196Z,1013.53
2016-10-31T13:10:05.929Z,1013.5
2016-10-31T13:10:46.592Z,1013.55
2016-10-31T13:11:27.327Z,1013.55
2016-10-31T13:12:08.046Z,1013.54
2016-10-31T13:12:48.789Z,1013.51
2016-10-31T13:13:29.553Z,1013.5
2016-10-31T13:14:10.278Z,1013.48
2016-10-31T13:14:50.961Z,1013.48
2016-10-31T13:15:31.668Z,1013.45
2016-10-31T13:16:12.290Z,1013.49
2016-10-31T13:16:52.945Z,1013.5
2016-10-31T13:17:33.619Z,1013.48
2016-10-31T13:18:15.308Z,1013.47
2016-10-31T13:18:55.954Z,1013.47
2016-10-31T13:19:36.625Z,1013.47
2016-10-31T13:20:17.283Z,1013.45
2016-10-31T13:20:57.979Z,1013.5
2016-10-31T13:21:38.695Z,1013.46
2016-10-31T13:22:19.366Z,1013.46
2016-10-31T13:23:00.081Z,1013.47
2016-10-31T13:23:40.784Z,1013.46
2016-10-31T13:24:21.476Z,1013.47
2016-10-31T13:25:02.143Z,1013.41
2016-10-31T13:25:42.857Z,1013.42
2016-10-31T13:26:23.607Z,1013.43
2016-10-31T13:27:04.294Z,1013.47
2016-10-31T13:27:45.061Z,1013.42
2016-10-31T13:28:25.707Z,1013.46
2016-10-31T13:29:06.378Z,1013.44
2016-10-31T13:29:47.130Z,1013.41
2016-10-31T13:30:27.794Z,1013.45
2016-10-31T13:31:08.515Z,1013.41
2016-10-31T13:31:49.294Z,1013.42
2016-10-31T13:32:29.996Z,1013.43
2016-10-31T13:33:10.696Z,1013.42
2016-10-31T13:33:51.401Z,1013.46
2016-10-31T13:34:32.089Z,1013.44
2016-10-31T13:35:12.796Z,1013.4
2016-10-31T13:35:53.504Z,1013.45
2016-10-31T13:36:34.197Z,1013.43
2016-10-31T13:37:14.875Z,1013.43
2016-10-31T13:37:55.532Z,1013.42
2016-10-31T13:38:36.220Z,1013.43
2016-10-31T13:39:16.938Z,1013.44
2016-10-31T13:39:57.560Z,1013.41
2016-10-31T13:40:38.242Z,1013.45
2016-10-31T13:41:18.961Z,1013.44
2016-10-31T13:41:59.659Z,1013.45
2016-10-31T13:42:40.384Z,1013.47
2016-10-31T13:43:21.044Z,1013.43
2016-10-31T13:44:01.778Z,1013.45
2016-10-31T13:44:42.547Z,1013.49
2016-10-31T13:45:23.201Z,1013.48
2016-10-31T13:46:03.919Z,1013.45
2016-10-31T13:46:44.592Z,1013.44
2016-10-31T13:47:25.248Z,1013.44
2016-10-31T13:48:05.975Z,1013.44
2016-10-31T13:48:46.685Z,1013.43
2016-10-31T13:49:27.391Z,1013.44
2016-10-31T13:50:08.145Z,1013.45
2016-10-31T13:50:48.849Z,1013.42
2016-10-31T13:51:29.553Z,1013.43
2016-10-31T13:52:10.243Z,1013.4
2016-10-31T13:52:50.932Z,1013.42
2016-10-31T13:53:31.638Z,1013.43
2016-10-31T13:54:12.401Z,1013.43
2016-10-31T13:54:53.138Z,1013.42
2016-10-31T13:55:33.829Z,1013.45
2016-10-31T13:56:14.641Z,1013.43
2016-10-31T13:56:55.331Z,1013.39
2016-10-31T13:57:36.037Z,1013.43
2016-10-31T13:58:16.756Z,1013.41
2016-10-31T13:58:57.434Z,1013.43
2016-10-31T13:59:38.127Z,1013.44
2016-10-31T14:00:18.823Z,1013.42
2016-10-31T14:00:59.545Z,1013.43
2016-10-31T14:01:40.224Z,1013.5
2016-10-31T14:02:20.918Z,1013.51
2016-10-31T14:03:01.625Z,1013.45
2016-10-31T14:03:42.400Z,1013.43
2016-10-31T14:04:23.081Z,1013.45
2016-10-31T14:05:03.825Z,1013.48
2016-10-31T14:05:44.553Z,1013.48
2016-10-31T14:06:25.220Z,1013.44
2016-10-31T14:07:05.894Z,1013.43
2016-10-31T14:07:46.605Z,1013.47
2016-10-31T14:08:27.267Z,1013.4
2016-10-31T14:09:07.924Z,1013.45
2016-10-31T14:09:48.616Z,1013.47
2016-10-31T14:10:29.342Z,1013.43
2016-10-31T14:11:10.109Z,1013.49
2016-10-31T14:11:50.836Z,1013.48
2016-10-31T14:12:31.538Z,1013.45
2016-10-31T14:13:12.191Z,1013.47
2016-10-31T14:13:52.883Z,1013.48
2016-10-31T14:14:33.557Z,1013.49
2016-10-31T14:15:14.252Z,1013.45
2016-10-31T14:15:54.939Z,1013.48
2016-10-31T14:16:35.684Z,1013.49
2016-10-31T14:17:16.354Z,1013.5
2016-10-31T14:17:57.922Z,1013.46
2016-10-31T14:18:37.736Z,1013.48
2016-10-31T14:19:18.444Z,1013.48
2016-10-31T14:19:59.200Z,1013.44
2016-10-31T14:20:39.929Z,1013.45
2016-10-31T14:21:20.640Z,1013.49
2016-10-31T14:22:01.296Z,1013.48
2016-10-31T14:22:41.976Z,1013.47
2016-10-31T14:23:22.701Z,1013.45
2016-10-31T14:24:03.354Z,1013.46
2016-10-31T14:24:43.995Z,1013.45
2016-10-31T14:25:24.678Z,1013.48
2016-10-31T14:26:05.371Z,1013.47
2016-10-31T14:26:46.028Z,1013.46
2016-10-31T14:27:26.750Z,1013.43
2016-10-31T14:28:07.424Z,1013.46
2016-10-31T14:28:48.146Z,1013.46
2016-10-31T14:29:28.799Z,1013.46
2016-10-31T14:30:09.513Z,1013.43
2016-10-31T14:30:50.290Z,1013.47
2016-10-31T14:31:30.987Z,1013.47
2016-10-31T14:32:11.668Z,1013.43
2016-10-31T14:32:52.325Z,1013.45
2016-10-31T14:33:33.075Z,1013.47
2016-10-31T14:34:13.829Z,1013.48
2016-10-31T14:34:54.492Z,1013.48
2016-10-31T14:35:35.209Z,1013.44
2016-10-31T14:36:15.898Z,1013.44
2016-10-31T14:36:56.564Z,1013.43
2016-10-31T14:37:37.295Z,1013.45
2016-10-31T14:38:17.980Z,1013.44
2016-10-31T14:38:58.614Z,1013.45
2016-10-31T14:39:39.340Z,1013.45
2016-10-31T14:40:20.042Z,1013.47
2016-10-31T14:41:00.694Z,1013.47
2016-10-31T14:41:41.367Z,1013.44
2016-10-31T14:42:22.046Z,1013.42
2016-10-31T14:43:02.765Z,1013.46
2016-10-31T14:43:43.457Z,1013.47
2016-10-31T14:44:24.202Z,1013.4
2016-10-31T14:45:04.871Z,1013.43
2016-10-31T14:45:45.551Z,1013.43
2016-10-31T14:46:26.280Z,1013.45
2016-10-31T14:47:06.950Z,1013.45
2016-10-31T14:47:47.652Z,1013.44
2016-10-31T14:48:28.320Z,1013.42
2016-10-31T14:49:09.029Z,1013.46
2016-10-31T14:49:49.713Z,1013.48
2016-10-31T14:50:30.403Z,1013.49
2016-10-31T14:51:11.105Z,1013.46
2016-10-31T14:51:51.817Z,1013.48
2016-10-31T14:52:33.449Z,1013.48
2016-10-31T14:53:13.304Z,1013.48
2016-10-31T14:53:53.993Z,1013.53
2016-10-31T14:54:34.751Z,1013.51
2016-10-31T14:55:15.458Z,1013.52
2016-10-31T14:55:56.166Z,1013.52
2016-10-31T14:56:36.937Z,1013.54
2016-10-31T14:57:17.643Z,1013.55
2016-10-31T14:57:58.358Z,1013.49
2016-10-31T14:58:39.084Z,1013.55
2016-10-31T14:59:19.822Z,1013.52
2016-10-31T15:00:00.478Z,1013.51
2016-10-31T15:00:41.160Z,1013.49
2016-10-31T15:01:21.866Z,1013.53
2016-10-31T15:02:02.558Z,1013.52
2016-10-31T15:02:43.288Z,1013.54
2016-10-31T15:03:23.999Z,1013.57
2016-10-31T15:04:04.720Z,1013.53
2016-10-31T15:04:45.375Z,1013.55
2016-10-31T15:05:26.056Z,1013.56
2016-10-31T15:06:06.778Z,1013.55
2016-10-31T15:06:47.457Z,1013.52
2016-10-31T15:07:28.146Z,1013.52
2016-10-31T15:08:08.848Z,1013.52
2016-10-31T15:08:49.492Z,1013.51
2016-10-31T15:09:30.203Z,1013.52
2016-10-31T15:10:10.912Z,1013.52
2016-10-31T15:10:51.590Z,1013.51
2016-10-31T15:11:32.269Z,1013.47
2016-10-31T15:12:12.974Z,1013.53
2016-10-31T15:12:53.668Z,1013.49
2016-10-31T15:13:34.374Z,1013.51
2016-10-31T15:14:15.046Z,1013.53
2016-10-31T15:14:55.780Z,1013.53
2016-10-31T15:15:36.490Z,1013.53
2016-10-31T15:16:17.962Z,1013.54
2016-10-31T15:16:59.749Z,1013.54
2016-10-31T15:17:40.444Z,1013.53
2016-10-31T15:18:21.156Z,1013.53
2016-10-31T15:19:01.853Z,1013.53
2016-10-31T15:19:42.532Z,1013.56
2016-10-31T15:20:23.258Z,1013.58
2016-10-31T15:21:03.936Z,1013.54
2016-10-31T15:21:44.681Z,1013.53
2016-10-31T15:22:25.376Z,1013.52
2016-10-31T15:23:06.100Z,1013.54
2016-10-31T15:23:46.798Z,1013.52
2016-10-31T15:24:27.504Z,1013.55
2016-10-31T15:25:08.146Z,1013.53
2016-10-31T15:25:48.934Z,1013.5
2016-10-31T15:26:29.749Z,1013.56
2016-10-31T15:27:10.874Z,1013.51
2016-10-31T15:27:52.379Z,1013.53
2016-10-31T15:28:33.246Z,1013.53
2016-10-31T15:29:14.047Z,1013.53
2016-10-31T15:29:54.775Z,1013.5
2016-10-31T15:30:35.540Z,1013.55
2016-10-31T15:31:16.261Z,1013.55
2016-10-31T15:31:56.956Z,1013.55
2016-10-31T15:32:37.664Z,1013.58
2016-10-31T15:33:18.397Z,1013.57
2016-10-31T15:33:59.193Z,1013.58
2016-10-31T15:34:39.872Z,1013.59
2016-10-31T15:35:20.595Z,1013.58
2016-10-31T15:36:01.393Z,1013.56
2016-10-31T15:36:42.122Z,1013.57
2016-10-31T15:37:23.959Z,1013.57
2016-10-31T15:38:04.771Z,1013.57
2016-10-31T15:38:45.548Z,1013.58
2016-10-31T15:39:26.479Z,1013.59
2016-10-31T15:40:07.237Z,1013.55
2016-10-31T15:40:48.485Z,1013.56
2016-10-31T15:41:29.046Z,1013.59
2016-10-31T15:42:09.681Z,1013.58
2016-10-31T15:42:50.380Z,1013.61
2016-10-31T15:43:31.091Z,1013.58
2016-10-31T15:44:11.737Z,1013.59
2016-10-31T15:44:52.468Z,1013.62
2016-10-31T15:45:33.180Z,1013.61
2016-10-31T15:46:13.916Z,1013.59
2016-10-31T15:46:54.554Z,1013.58
2016-10-31T15:47:35.216Z,1013.59
2016-10-31T15:48:15.849Z,1013.57
2016-10-31T15:48:56.538Z,1013.6
2016-10-31T15:49:37.227Z,1013.61
2016-10-31T15:50:17.888Z,1013.56
2016-10-31T15:50:58.611Z,1013.6
2016-10-31T15:51:39.392Z,1013.57
2016-10-31T15:52:20.058Z,1013.57
2016-10-31T15:53:00.784Z,1013.6
2016-10-31T15:53:41.524Z,1013.57
2016-10-31T15:54:22.225Z,1013.56
2016-10-31T15:55:02.953Z,1013.55
2016-10-31T15:55:43.705Z,1013.57
2016-10-31T15:56:25.361Z,1013.55
2016-10-31T15:57:06.322Z,1013.56
2016-10-31T15:57:47.067Z,1013.54
2016-10-31T15:58:27.818Z,1013.55
2016-10-31T15:59:08.556Z,1013.54
2016-10-31T15:59:49.260Z,1013.55
2016-10-31T16:00:29.986Z,1013.54
2016-10-31T16:01:10.668Z,1013.51
2016-10-31T16:01:51.367Z,1013.53
2016-10-31T16:02:32.081Z,1013.5
2016-10-31T16:03:12.802Z,1013.5
2016-10-31T16:03:53.501Z,1013.51
2016-10-31T16:04:34.223Z,1013.49
2016-10-31T16:05:14.942Z,1013.5
2016-10-31T16:05:55.596Z,1013.46
2016-10-31T16:06:36.278Z,1013.5
2016-10-31T16:07:16.965Z,1013.48
2016-10-31T16:07:57.688Z,1013.48
2016-10-31T16:08:38.342Z,1013.51
2016-10-31T16:09:19.007Z,1013.51
2016-10-31T16:09:59.740Z,1013.49
2016-10-31T16:10:40.364Z,1013.51
2016-10-31T16:11:21.083Z,1013.52
2016-10-31T16:12:01.727Z,1013.54
2016-10-31T16:12:42.504Z,1013.52
2016-10-31T16:13:23.223Z,1013.51
2016-10-31T16:14:03.892Z,1013.49
2016-10-31T16:14:44.640Z,1013.53
2016-10-31T16:15:25.326Z,1013.51
2016-10-31T16:16:06.033Z,1013.5
2016-10-31T16:16:46.715Z,1013.52
2016-10-31T16:17:27.436Z,1013.51
2016-10-31T16:18:08.157Z,1013.56
2016-10-31T16:18:48.838Z,1013.55
2016-10-31T16:19:29.522Z,1013.55
2016-10-31T16:20:10.219Z,1013.55
2016-10-31T16:20:50.892Z,1013.54
2016-10-31T16:21:31.616Z,1013.55
2016-10-31T16:22:12.342Z,1013.57
2016-10-31T16:22:53.062Z,1013.59
2016-10-31T16:23:33.752Z,1013.57
2016-10-31T16:24:14.434Z,1013.55
2016-10-31T16:24:55.137Z,1013.58
2016-10-31T16:25:35.846Z,1013.59
2016-10-31T16:26:16.559Z,1013.58
2016-10-31T16:26:57.258Z,1013.57
2016-10-31T16:27:38.026Z,1013.54
2016-10-31T16:28:18.712Z,1013.56
2016-10-31T16:28:59.443Z,1013.57
2016-10-31T16:29:40.137Z,1013.57
2016-10-31T16:30:20.834Z,1013.58
2016-10-31T16:31:01.548Z,1013.58
2016-10-31T16:31:42.367Z,1013.56
2016-10-31T16:32:23.055Z,1013.59
2016-10-31T16:33:03.787Z,1013.57
2016-10-31T16:33:44.472Z,1013.61
2016-10-31T16:34:25.176Z,1013.62
2016-10-31T16:35:05.846Z,1013.64
2016-10-31T16:35:46.600Z,1013.59
2016-10-31T16:36:27.320Z,1013.6
2016-10-31T16:37:08.204Z,1013.58
2016-10-31T16:37:48.827Z,1013.61
2016-10-31T16:38:29.483Z,1013.62
2016-10-31T16:39:10.381Z,1013.6
2016-10-31T16:39:50.948Z,1013.59
2016-10-31T16:40:31.759Z,1013.58
2016-10-31T16:41:12.422Z,1013.58
2016-10-31T16:41:53.119Z,1013.62
2016-10-31T16:42:33.817Z,1013.64
2016-10-31T16:43:14.519Z,1013.62
2016-10-31T16:43:55.183Z,1013.6
2016-10-31T16:44:35.859Z,1013.62
2016-10-31T16:45:16.547Z,1013.6
2016-10-31T16:45:57.226Z,1013.66
2016-10-31T16:46:37.924Z,1013.63
2016-10-31T16:47:18.742Z,1013.64
2016-10-31T16:48:00.532Z,1013.65
2016-10-31T16:48:41.458Z,1013.66
2016-10-31T16:49:22.149Z,1013.7
2016-10-31T16:50:02.872Z,1013.72
2016-10-31T16:50:43.570Z,1013.7
2016-10-31T16:51:24.468Z,1013.68
2016-10-31T16:52:05.255Z,1013.72
2016-10-31T16:52:45.912Z,1013.69
2016-10-31T16:53:26.587Z,1013.69
2016-10-31T16:54:07.334Z,1013.74
2016-10-31T16:54:48.042Z,1013.72
2016-10-31T16:55:28.750Z,1013.74
2016-10-31T16:56:09.520Z,1013.72
2016-10-31T16:56:50.416Z,1013.74
2016-10-31T16:57:31.072Z,1013.75
2016-10-31T16:58:11.865Z,1013.76
2016-10-31T16:58:52.552Z,1013.78
2016-10-31T16:59:33.304Z,1013.76
2016-10-31T17:00:14.001Z,1013.79
2016-10-31T17:00:54.738Z,1013.79
2016-10-31T17:01:35.470Z,1013.8
2016-10-31T17:02:16.198Z,1013.79
2016-10-31T17:02:57.843Z,1013.81
2016-10-31T17:03:38.510Z,1013.79
2016-10-31T17:04:19.318Z,1013.83
2016-10-31T17:04:59.996Z,1013.83
2016-10-31T17:05:40.682Z,1013.87
2016-10-31T17:06:21.393Z,1013.85
2016-10-31T17:07:02.127Z,1013.84
2016-10-31T17:07:42.806Z,1013.87
2016-10-31T17:08:23.524Z,1013.87
2016-10-31T17:09:04.243Z,1013.89